createdAt,value
2019-05-13T00:01:27.404Z,1.93
2019-05-13T00:03:57.436Z,1.80
2019-05-13T00:06:27.182Z,1.90
2019-05-13T00:08:58.149Z,2.63
2019-05-13T00:11:27.827Z,2.33
2019-05-13T00:13:59.010Z,1.93
2019-05-13T00:16:28.709Z,1.87
2019-05-13T00:18:58.676Z,2.03
2019-05-13T00:21:28.431Z,2.50
2019-05-13T00:23:58.258Z,2.00
2019-05-13T00:26:28.778Z,2.33
2019-05-13T00:28:58.770Z,2.17
2019-05-13T00:31:28.462Z,1.70
2019-05-13T00:33:58.490Z,2.77
2019-05-13T00:36:28.149Z,3.00
2019-05-13T00:38:57.911Z,2.47
2019-05-13T00:41:27.569Z,2.17
2019-05-13T00:43:58.197Z,2.47
2019-05-13T00:46:27.862Z,2.80
2019-05-13T00:48:57.570Z,3.07
2019-05-13T00:51:27.506Z,3.03
2019-05-13T00:53:57.190Z,2.80
2019-05-13T00:56:26.853Z,2.67
2019-05-13T00:58:56.591Z,2.73
2019-05-13T01:01:26.278Z,2.93
2019-05-13T01:03:56.169Z,2.60
2019-05-13T01:06:25.897Z,3.13
2019-05-13T01:08:55.689Z,2.90
2019-05-13T01:11:25.368Z,3.07
2019-05-13T01:13:55.034Z,2.40
2019-05-13T01:16:24.738Z,2.70
2019-05-13T01:18:54.420Z,3.00
2019-05-13T01:21:24.208Z,2.57
2019-05-13T01:23:54.352Z,3.17
2019-05-13T01:26:24.149Z,2.73
2019-05-13T01:28:53.909Z,3.03
2019-05-13T01:31:24.011Z,2.40
2019-05-13T01:33:53.846Z,3.07
2019-05-13T01:36:24.799Z,3.37
2019-05-13T01:38:54.475Z,2.87
2019-05-13T01:41:24.227Z,2.60
2019-05-13T01:43:54.453Z,3.03
2019-05-13T01:46:24.370Z,3.13
2019-05-13T01:48:55.159Z,2.90
2019-05-13T01:51:25.001Z,3.37
2019-05-13T01:53:54.950Z,3.43
2019-05-13T01:56:24.616Z,3.50
2019-05-13T01:58:54.293Z,2.67
2019-05-13T02:01:24.268Z,3.07
2019-05-13T02:03:55.076Z,3.40
2019-05-13T02:06:24.877Z,3.53
2019-05-13T02:08:54.724Z,3.60
2019-05-13T02:11:24.418Z,3.60
2019-05-13T02:13:54.234Z,3.27
2019-05-13T02:16:27.602Z,3.13
2019-05-13T02:18:57.378Z,2.77
2019-05-13T02:21:27.188Z,3.00
2019-05-13T02:23:57.618Z,3.17
2019-05-13T02:26:27.426Z,3.10
2019-05-13T02:28:57.255Z,3.87
2019-05-13T02:31:41.388Z,3.30
2019-05-13T02:33:58.481Z,3.00
2019-05-13T02:36:28.145Z,2.73
2019-05-13T02:38:57.828Z,3.10
2019-05-13T02:41:27.721Z,3.33
2019-05-13T02:43:57.393Z,3.37
2019-05-13T02:46:27.079Z,3.20
2019-05-13T02:48:57.051Z,3.33
2019-05-13T02:51:26.742Z,2.90
2019-05-13T02:53:56.538Z,2.90
2019-05-13T02:56:26.205Z,3.33
2019-05-13T02:58:55.898Z,3.00
2019-05-13T03:01:25.559Z,3.57
2019-05-13T03:03:55.221Z,3.57
2019-05-13T03:06:24.922Z,3.40
2019-05-13T03:08:54.812Z,3.23
2019-05-13T03:11:24.671Z,2.57
2019-05-13T03:13:54.642Z,2.90
2019-05-13T03:16:42.616Z,3.17
2019-05-13T03:19:13.543Z,3.30
2019-05-13T03:21:43.473Z,3.40
2019-05-13T03:24:13.576Z,3.60
2019-05-13T03:26:43.585Z,2.47
2019-05-13T03:29:13.411Z,2.90
2019-05-13T03:31:46.246Z,3.70
2019-05-13T03:34:16.135Z,3.30
2019-05-13T03:36:46.918Z,3.80
2019-05-13T03:39:17.010Z,4.07
2019-05-13T03:41:48.237Z,3.67
2019-05-13T03:44:18.626Z,3.63
2019-05-13T03:46:48.796Z,3.47
2019-05-13T03:49:22.511Z,3.17
2019-05-13T03:51:53.463Z,3.23
2019-05-13T03:54:22.891Z,2.50
2019-05-13T03:56:53.192Z,3.67
2019-05-13T03:59:23.623Z,3.20
2019-05-13T04:01:53.316Z,2.87
2019-05-13T04:04:23.652Z,3.63
2019-05-13T04:06:53.481Z,3.10
2019-05-13T04:09:31.281Z,2.80
2019-05-13T04:11:54.571Z,3.17
2019-05-13T04:14:24.247Z,2.97
2019-05-13T04:16:54.335Z,2.80
2019-05-13T04:19:23.995Z,2.73
2019-05-13T04:21:53.683Z,3.00
2019-05-13T04:24:23.567Z,2.40
2019-05-13T04:26:54.419Z,3.03
2019-05-13T04:29:24.436Z,3.40
2019-05-13T04:31:54.447Z,3.10
2019-05-13T04:34:24.238Z,3.37
2019-05-13T04:36:53.982Z,2.70
2019-05-13T04:39:40.289Z,2.77
2019-05-13T04:41:55.159Z,2.53
2019-05-13T04:44:24.899Z,2.70
2019-05-13T04:46:54.876Z,2.23
2019-05-13T04:49:25.285Z,3.07
2019-05-13T04:51:54.967Z,2.97
2019-05-13T04:54:24.725Z,3.13
2019-05-13T04:56:54.408Z,2.50
2019-05-13T04:59:24.110Z,2.70
2019-05-13T05:01:59.549Z,2.53
2019-05-13T05:04:44.838Z,2.70
2019-05-13T05:07:32.543Z,2.80
2019-05-13T05:10:26.200Z,3.37
2019-05-13T05:13:15.468Z,2.33
2019-05-13T05:16:04.380Z,2.40
2019-05-13T05:18:56.274Z,2.57
2019-05-13T05:21:27.802Z,2.20
2019-05-13T05:24:11.361Z,2.40
2019-05-13T05:27:01.408Z,2.10
2019-05-13T05:29:37.836Z,2.63
2019-05-13T05:32:16.670Z,2.60
2019-05-13T05:35:05.474Z,2.07
2019-05-13T05:37:49.099Z,2.97
2019-05-13T05:40:28.974Z,2.23
2019-05-13T05:42:52.356Z,2.47
2019-05-13T05:45:22.174Z,2.80
2019-05-13T05:47:52.840Z,2.23
2019-05-13T05:50:23.115Z,3.00
2019-05-13T05:52:53.789Z,2.60
2019-05-13T05:55:24.529Z,1.87
2019-05-13T05:57:55.520Z,2.70
2019-05-13T06:00:25.209Z,2.77
2019-05-13T06:02:56.099Z,2.50
2019-05-13T06:05:26.254Z,2.93
2019-05-13T06:07:55.961Z,2.53
2019-05-13T06:10:25.787Z,2.60
2019-05-13T06:12:55.811Z,3.17
2019-05-13T06:15:25.708Z,2.60
2019-05-13T06:17:55.382Z,2.30
2019-05-13T06:20:25.096Z,2.70
2019-05-13T06:22:54.761Z,2.43
2019-05-13T06:25:27.708Z,3.23
2019-05-13T06:27:57.684Z,2.70
2019-05-13T06:30:27.456Z,2.37
2019-05-13T06:32:57.629Z,3.10
2019-05-13T06:35:27.348Z,2.20
2019-05-13T06:37:57.168Z,2.70
2019-05-13T06:40:26.832Z,2.70
2019-05-13T06:42:56.521Z,2.10
2019-05-13T06:45:26.185Z,2.57
2019-05-13T06:47:55.865Z,2.30
2019-05-13T06:50:25.541Z,2.20
2019-05-13T06:52:55.357Z,2.53
2019-05-13T06:55:25.088Z,2.70
2019-05-13T06:57:54.777Z,2.77
2019-05-13T07:00:24.570Z,2.53
2019-05-13T07:02:54.593Z,2.23
2019-05-13T07:05:24.321Z,2.30
2019-05-13T07:07:54.081Z,3.03
2019-05-13T07:10:23.872Z,2.40
2019-05-13T07:12:53.577Z,2.37
2019-05-13T07:15:23.341Z,2.10
2019-05-13T07:17:53.220Z,2.03
2019-05-13T07:20:32.198Z,2.23
2019-05-13T07:23:03.734Z,2.67
2019-05-13T07:25:33.851Z,2.83
2019-05-13T07:28:03.953Z,2.13
2019-05-13T07:30:38.424Z,2.40
2019-05-13T07:33:08.650Z,2.53
2019-05-13T07:35:43.074Z,1.83
2019-05-13T07:38:11.731Z,2.13
2019-05-13T07:40:41.991Z,2.50
2019-05-13T07:43:12.563Z,2.23
2019-05-13T07:45:42.629Z,2.30
2019-05-13T07:48:21.220Z,2.63
2019-05-13T07:51:31.640Z,2.33
2019-05-13T07:54:02.405Z,1.90
2019-05-13T07:56:42.655Z,2.30
2019-05-13T07:59:12.724Z,2.30
2019-05-13T08:01:43.758Z,2.67
2019-05-13T08:04:22.714Z,2.03
2019-05-13T08:06:52.420Z,2.00
2019-05-13T08:09:21.680Z,1.80
2019-05-13T08:12:14.250Z,2.07
2019-05-13T08:14:43.660Z,2.20
2019-05-13T08:17:13.746Z,1.97
2019-05-13T08:19:43.618Z,1.80
2019-05-13T08:22:13.451Z,2.50
2019-05-13T08:24:43.160Z,1.97
2019-05-13T08:27:12.834Z,2.10
2019-05-13T08:29:42.824Z,2.10
2019-05-13T08:32:12.579Z,2.37
2019-05-13T08:34:42.654Z,2.20
2019-05-13T08:37:12.418Z,1.83
2019-05-13T08:39:42.169Z,1.90
2019-05-13T08:42:18.792Z,1.73
2019-05-13T08:44:43.290Z,1.47
2019-05-13T08:47:12.982Z,2.00
2019-05-13T08:49:42.758Z,1.30
2019-05-13T08:52:12.673Z,1.70
2019-05-13T08:54:42.414Z,2.10
2019-05-13T08:57:12.108Z,1.63
2019-05-13T08:59:42.378Z,2.10
2019-05-13T09:02:12.469Z,2.50
2019-05-13T09:04:43.265Z,1.90
2019-05-13T09:07:13.252Z,1.93
2019-05-13T09:09:42.977Z,1.60
2019-05-13T09:12:28.145Z,2.27
2019-05-13T09:14:44.213Z,1.67
2019-05-13T09:17:14.037Z,1.23
2019-05-13T09:19:43.725Z,1.77
2019-05-13T09:22:13.685Z,1.83
2019-05-13T09:24:43.398Z,1.77
2019-05-13T09:27:14.274Z,1.77
2019-05-13T09:29:44.090Z,1.77
2019-05-13T09:32:13.758Z,2.00
2019-05-13T09:34:44.493Z,1.70
2019-05-13T09:37:14.180Z,1.33
2019-05-13T09:39:44.005Z,2.23
2019-05-13T09:42:13.700Z,1.73
2019-05-13T09:44:43.470Z,1.97
2019-05-13T09:47:13.555Z,1.97
2019-05-13T09:49:43.695Z,1.60
2019-05-13T09:52:14.445Z,1.50
2019-05-13T09:54:44.156Z,1.50
2019-05-13T09:57:13.983Z,1.77
2019-05-13T09:59:44.051Z,1.60
2019-05-13T10:02:13.715Z,1.17
2019-05-13T10:04:44.059Z,1.50
2019-05-13T10:07:13.976Z,1.00
2019-05-13T10:09:48.092Z,1.30
2019-05-13T10:12:16.194Z,1.50
2019-05-13T10:14:46.289Z,1.17
2019-05-13T10:17:16.057Z,1.63
2019-05-13T10:19:46.908Z,1.43
2019-05-13T10:22:16.621Z,1.63
2019-05-13T10:24:46.440Z,1.23
2019-05-13T10:27:18.836Z,1.60
2019-05-13T10:29:47.619Z,1.47
2019-05-13T10:32:17.557Z,1.50
2019-05-13T10:34:47.445Z,1.43
2019-05-13T10:37:17.254Z,1.50
2019-05-13T10:39:47.034Z,1.43
2019-05-13T10:42:16.829Z,1.70
2019-05-13T10:44:46.579Z,1.40
2019-05-13T10:47:16.443Z,1.30
2019-05-13T10:49:46.261Z,1.40
2019-05-13T10:52:16.013Z,1.50
2019-05-13T10:54:45.793Z,1.80
2019-05-13T10:57:15.512Z,1.37
2019-05-13T10:59:47.009Z,1.63
2019-05-13T11:02:17.454Z,1.37
2019-05-13T11:04:51.944Z,1.47
2019-05-13T11:07:24.302Z,1.30
2019-05-13T11:09:55.958Z,1.20
2019-05-13T11:12:28.584Z,1.20
2019-05-13T11:14:57.519Z,1.43
2019-05-13T11:17:31.121Z,1.30
2019-05-13T11:19:58.862Z,1.37
2019-05-13T11:22:28.923Z,1.50
2019-05-13T11:24:58.602Z,1.17
2019-05-13T11:27:29.163Z,1.40
2019-05-13T11:29:58.857Z,1.30
2019-05-13T11:32:28.610Z,1.47
2019-05-13T11:35:01.792Z,1.40
2019-05-13T11:37:32.092Z,1.27
2019-05-13T11:40:02.830Z,1.20
2019-05-13T11:42:33.375Z,1.30
2019-05-13T11:45:03.094Z,0.93
2019-05-13T11:47:32.832Z,1.43
2019-05-13T11:50:02.654Z,1.20
2019-05-13T11:52:32.397Z,0.90
2019-05-13T11:55:03.002Z,0.90
2019-05-13T11:57:33.097Z,1.27
2019-05-13T12:00:03.001Z,1.33
2019-05-13T12:02:32.931Z,1.77
2019-05-13T12:05:04.030Z,1.23
2019-05-13T12:07:34.056Z,1.27
2019-05-13T12:10:05.174Z,1.30
2019-05-13T12:12:34.984Z,1.10
2019-05-13T12:15:26.537Z,1.60
2019-05-13T12:17:36.948Z,1.03
2019-05-13T12:20:06.673Z,1.20
2019-05-13T12:22:36.508Z,1.20
2019-05-13T12:25:06.451Z,1.50
2019-05-13T12:27:36.238Z,1.83
2019-05-13T12:30:06.017Z,1.30
2019-05-13T12:32:35.842Z,1.20
2019-05-13T12:35:05.742Z,1.50
2019-05-13T12:37:35.581Z,1.40
2019-05-13T12:40:05.297Z,1.33
2019-05-13T12:42:35.153Z,1.37
2019-05-13T12:45:09.708Z,1.30
2019-05-13T12:47:36.379Z,1.10
2019-05-13T12:50:07.518Z,1.07
2019-05-13T12:52:37.856Z,1.43
2019-05-13T12:55:07.637Z,1.90
2019-05-13T12:57:37.658Z,1.20
2019-05-13T13:00:08.770Z,1.57
2019-05-13T13:02:38.557Z,1.70
2019-05-13T13:05:14.177Z,1.70
2019-05-13T13:07:42.373Z,1.37
2019-05-13T13:10:14.669Z,1.30
2019-05-13T13:12:43.177Z,1.70
2019-05-13T13:15:35.909Z,1.37
2019-05-13T13:17:44.456Z,1.83
2019-05-13T13:20:15.210Z,1.70
2019-05-13T13:22:45.479Z,1.60
2019-05-13T13:25:15.166Z,1.30
2019-05-13T13:28:08.973Z,1.40
2019-05-13T13:30:16.538Z,1.70
2019-05-13T13:32:46.581Z,1.60
2019-05-13T13:35:16.354Z,1.60
2019-05-13T13:37:46.393Z,1.70
2019-05-13T13:40:24.329Z,1.83
2019-05-13T13:42:47.626Z,1.53
2019-05-13T13:45:17.510Z,1.73
2019-05-13T13:47:58.409Z,1.70
2019-05-13T13:50:18.862Z,1.60
2019-05-13T13:52:48.570Z,1.87
2019-05-13T13:55:18.276Z,2.13
2019-05-13T13:57:48.303Z,1.60
2019-05-13T14:00:37.604Z,1.60
2019-05-13T14:02:54.248Z,1.10
2019-05-13T14:05:24.688Z,1.80
2019-05-13T14:07:54.575Z,1.30
2019-05-13T14:10:24.418Z,1.93
2019-05-13T14:12:54.141Z,2.47
2019-05-13T14:15:23.933Z,1.70
2019-05-13T14:17:54.004Z,1.13
2019-05-13T14:20:23.761Z,1.30
2019-05-13T14:22:57.827Z,1.40
2019-05-13T14:25:24.967Z,1.50
2019-05-13T14:27:55.269Z,1.70
2019-05-13T14:30:24.949Z,2.07
2019-05-13T14:32:54.875Z,1.33
2019-05-13T14:35:24.622Z,1.50
2019-05-13T14:37:54.421Z,1.73
2019-05-13T14:40:24.121Z,1.50
2019-05-13T14:42:53.963Z,2.20
2019-05-13T14:45:24.070Z,1.77
2019-05-13T14:47:55.002Z,1.43
2019-05-13T14:50:25.139Z,1.60
2019-05-13T14:52:54.925Z,1.70
2019-05-13T14:55:24.757Z,1.90
2019-05-13T14:57:54.481Z,1.67
2019-05-13T15:00:24.570Z,1.90
2019-05-13T15:02:54.616Z,1.53
2019-05-13T15:05:24.421Z,1.47
2019-05-13T15:07:54.126Z,1.37
2019-05-13T15:10:24.918Z,1.50
2019-05-13T15:12:55.249Z,1.70
2019-05-13T15:15:24.957Z,1.30
2019-05-13T15:17:54.797Z,1.27
2019-05-13T15:20:24.909Z,1.60
2019-05-13T15:22:54.720Z,1.37
2019-05-13T15:25:24.943Z,1.67
2019-05-13T15:27:55.652Z,1.50
2019-05-13T15:30:25.769Z,1.73
2019-05-13T15:32:55.502Z,1.50
2019-05-13T15:35:25.164Z,1.77
2019-05-13T15:37:55.264Z,1.83
2019-05-13T15:40:24.968Z,2.07
2019-05-13T15:42:54.698Z,1.53
2019-05-13T15:45:24.443Z,2.00
2019-05-13T15:47:54.185Z,1.50
2019-05-13T15:50:23.890Z,1.83
2019-05-13T15:52:53.660Z,1.40
2019-05-13T15:55:24.038Z,1.40
2019-05-13T15:57:54.416Z,1.63
2019-05-13T16:00:24.249Z,1.50
2019-05-13T16:02:53.971Z,2.00
2019-05-13T16:05:23.788Z,1.30
2019-05-13T16:07:53.473Z,1.10
2019-05-13T16:10:23.324Z,1.40
2019-05-13T16:12:54.131Z,1.10
2019-05-13T16:15:23.871Z,1.60
2019-05-13T16:17:53.674Z,1.30
2019-05-13T16:20:23.460Z,1.10
2019-05-13T16:22:53.529Z,1.00
2019-05-13T16:25:23.306Z,1.30
2019-05-13T16:27:53.104Z,1.30
2019-05-13T16:30:22.955Z,1.77
2019-05-13T16:32:53.489Z,1.33
2019-05-13T16:35:23.230Z,1.30
2019-05-13T16:37:53.472Z,1.40
2019-05-13T16:40:23.266Z,1.37
2019-05-13T16:42:52.991Z,1.20
2019-05-13T16:45:22.749Z,1.33
2019-05-13T16:47:58.740Z,1.20
2019-05-13T16:50:25.185Z,1.63
2019-05-13T16:52:55.413Z,1.10
2019-05-13T16:55:25.218Z,0.80
2019-05-13T16:57:55.067Z,1.37
2019-05-13T17:00:25.154Z,1.03
2019-05-13T17:02:54.951Z,1.20
2019-05-13T17:05:24.905Z,1.30
2019-05-13T17:07:54.800Z,1.20
2019-05-13T17:10:24.604Z,1.27
2019-05-13T17:12:54.310Z,1.20
2019-05-13T17:15:26.486Z,1.33
2019-05-13T17:18:08.259Z,1.60
2019-05-13T17:20:27.049Z,1.20
2019-05-13T17:22:56.812Z,1.50
2019-05-13T17:25:26.501Z,1.87
2019-05-13T17:27:56.344Z,1.97
2019-05-13T17:30:26.035Z,1.67
2019-05-13T17:32:56.074Z,2.63
2019-05-13T17:35:25.916Z,1.90
2019-05-13T17:37:55.729Z,1.73
2019-05-13T17:40:25.481Z,1.40
2019-05-13T17:42:55.197Z,2.03
2019-05-13T17:45:24.936Z,1.47
2019-05-13T17:47:54.726Z,1.10
2019-05-13T17:50:24.428Z,1.13
2019-05-13T17:52:54.216Z,1.40
2019-05-13T17:55:24.044Z,1.20
2019-05-13T17:57:56.976Z,1.30
2019-05-13T18:00:26.755Z,0.83
2019-05-13T18:02:56.504Z,1.30
2019-05-13T18:05:26.249Z,1.50
2019-05-13T18:07:56.011Z,1.40
2019-05-13T18:10:25.959Z,1.33
2019-05-13T18:12:56.031Z,1.03
2019-05-13T18:15:25.988Z,1.13
2019-05-13T18:17:55.686Z,1.00
2019-05-13T18:20:25.565Z,1.37
2019-05-13T18:22:58.288Z,1.40
2019-05-13T18:25:28.365Z,1.57
2019-05-13T18:27:58.153Z,1.70
2019-05-13T18:30:27.959Z,1.10
2019-05-13T18:32:57.831Z,1.40
2019-05-13T18:35:27.715Z,1.07
2019-05-13T18:37:57.831Z,1.60
2019-05-13T18:40:27.608Z,1.40
2019-05-13T18:42:57.383Z,1.37
2019-05-13T18:45:27.197Z,1.80
2019-05-13T18:47:56.968Z,2.00
2019-05-13T18:50:26.708Z,1.53
2019-05-13T18:52:57.118Z,1.60
2019-05-13T18:55:26.830Z,1.37
2019-05-13T18:57:56.524Z,1.43
2019-05-13T19:00:26.208Z,1.40
2019-05-13T19:02:55.973Z,1.03
2019-05-13T19:05:25.658Z,1.13
2019-05-13T19:07:55.496Z,1.10
2019-05-13T19:10:25.191Z,1.63
2019-05-13T19:12:57.755Z,0.90
2019-05-13T19:15:26.955Z,1.40
2019-05-13T19:17:57.091Z,1.13
2019-05-13T19:20:27.877Z,1.30
2019-05-13T19:22:57.983Z,1.20
2019-05-13T19:25:27.677Z,1.10
2019-05-13T19:27:57.445Z,1.23
2019-05-13T19:30:27.602Z,1.53
2019-05-13T19:32:57.320Z,1.17
2019-05-13T19:35:27.027Z,0.90
2019-05-13T19:37:56.825Z,1.00
2019-05-13T19:40:26.824Z,1.27
2019-05-13T19:42:56.746Z,1.23
2019-05-13T19:45:26.496Z,1.53
2019-05-13T19:47:56.421Z,0.90
2019-05-13T19:50:26.245Z,1.40
2019-05-13T19:52:56.022Z,1.50
2019-05-13T19:55:25.855Z,1.40
2019-05-13T19:57:55.545Z,1.50
2019-05-13T20:00:25.316Z,1.27
2019-05-13T20:02:54.991Z,1.23
2019-05-13T20:05:24.786Z,1.10
2019-05-13T20:07:54.694Z,1.60
2019-05-13T20:10:24.598Z,1.80
2019-05-13T20:12:54.460Z,1.33
2019-05-13T20:15:24.239Z,1.00
2019-05-13T20:17:54.024Z,1.30
2019-05-13T20:20:23.775Z,1.47
2019-05-13T20:22:53.993Z,1.60
2019-05-13T20:25:23.687Z,1.70
2019-05-13T20:27:53.741Z,1.40
2019-05-13T20:30:24.578Z,1.30
2019-05-13T20:32:55.044Z,1.50
2019-05-13T20:35:24.874Z,1.43
2019-05-13T20:37:54.640Z,1.30
2019-05-13T20:40:24.462Z,1.10
2019-05-13T20:42:54.423Z,1.60
2019-05-13T20:45:26.389Z,1.30
2019-05-13T20:47:58.381Z,1.43
2019-05-13T20:50:28.305Z,1.43
2019-05-13T20:52:58.994Z,1.60
2019-05-13T20:55:29.199Z,1.63
2019-05-13T20:58:01.425Z,1.87
2019-05-13T21:00:32.867Z,1.60
2019-05-13T21:03:08.804Z,2.03
2019-05-13T21:05:38.601Z,1.27
2019-05-13T21:08:11.176Z,1.80
2019-05-13T21:10:42.125Z,1.40
2019-05-13T21:13:16.032Z,1.50
2019-05-13T21:15:45.762Z,1.70
2019-05-13T21:18:16.042Z,1.63
2019-05-13T21:20:45.964Z,2.10
2019-05-13T21:23:16.018Z,1.90
2019-05-13T21:25:46.176Z,1.57
2019-05-13T21:28:15.869Z,1.50
2019-05-13T21:30:45.581Z,1.67
2019-05-13T21:33:15.249Z,1.63
2019-05-13T21:35:45.124Z,1.50
2019-05-13T21:38:14.901Z,1.40
2019-05-13T21:40:45.054Z,1.93
2019-05-13T21:43:16.730Z,1.47
2019-05-13T21:45:46.548Z,1.73
2019-05-13T21:48:16.238Z,1.40
2019-05-13T21:50:48.363Z,1.83
2019-05-13T21:53:24.518Z,2.00
2019-05-13T21:55:56.665Z,1.53
2019-05-13T21:58:27.009Z,1.50
2019-05-13T22:00:57.485Z,1.57
2019-05-13T22:03:28.373Z,2.37
2019-05-13T22:05:58.583Z,1.37
2019-05-13T22:08:28.373Z,1.80
2019-05-13T22:10:58.445Z,1.87
2019-05-13T22:13:28.236Z,1.70
2019-05-13T22:15:58.132Z,1.90
2019-05-13T22:18:27.887Z,1.90
2019-05-13T22:20:57.629Z,2.30
2019-05-13T22:23:27.589Z,2.13
2019-05-13T22:25:57.400Z,2.17
2019-05-13T22:28:27.179Z,1.70
2019-05-13T22:30:57.009Z,1.43
2019-05-13T22:33:26.761Z,1.70
2019-05-13T22:35:56.524Z,1.63
2019-05-13T22:38:26.306Z,2.03
2019-05-13T22:40:56.158Z,2.13
2019-05-13T22:43:25.948Z,1.60
2019-05-13T22:45:56.008Z,1.57
2019-05-13T22:48:25.694Z,1.50
2019-05-13T22:50:55.753Z,1.50
2019-05-13T22:53:25.504Z,2.03
2019-05-13T22:55:55.200Z,1.93
2019-05-13T22:58:26.178Z,1.57
2019-05-13T23:00:56.225Z,1.87
2019-05-13T23:03:25.988Z,1.90
2019-05-13T23:05:55.689Z,1.73
2019-05-13T23:08:25.359Z,1.40
2019-05-13T23:10:55.072Z,1.93
2019-05-13T23:13:24.740Z,1.87
2019-05-13T23:15:55.590Z,1.60
2019-05-13T23:18:25.357Z,1.60
2019-05-13T23:20:55.161Z,1.83
2019-05-13T23:23:24.821Z,1.70
2019-05-13T23:25:56.852Z,2.03
2019-05-13T23:28:25.938Z,1.43
2019-05-13T23:30:55.909Z,1.93
2019-05-13T23:33:25.584Z,1.50
2019-05-13T23:35:55.332Z,1.43
2019-05-13T23:38:25.034Z,1.77
2019-05-13T23:40:54.708Z,2.00
2019-05-13T23:43:24.420Z,1.80
2019-05-13T23:45:54.112Z,2.70
2019-05-13T23:48:23.905Z,1.93
2019-05-13T23:50:53.598Z,1.93
2019-05-13T23:53:23.410Z,1.40
2019-05-13T23:55:53.073Z,2.17
2019-05-13T23:58:22.737Z,1.03
